Time;durP1;ratioP1;P1;durP2;ratioP2;P2;SDS_P1;SDS_P2;PMS_P1;PMS_P2;Temp;Humidity;BMP_temperature;BMP_pressure;BME280_temperature;BME280_humidity;BME280_pressure;Samples;Min_cycle;Max_cycle;Signal;HPM_P1;HPM_P2
2023/12/12 00:01:21;;;;;;;0.00;0.00;;;4.50;100.00;;;;;;4995433;28;20912;-71
2023/12/12 00:03:50;;;;;;;0.00;0.00;;;4.50;100.00;;;;;;4996358;28;20153;-71
2023/12/12 00:06:17;;;;;;;0.00;0.00;;;4.50;100.00;;;;;;4991540;28;20050;-72
2023/12/12 00:08:44;;;;;;;0.00;0.00;;;4.50;100.00;;;;;;4995812;28;21286;-72
2023/12/12 00:11:11;;;;;;;0.00;0.00;;;4.60;100.00;;;;;;4996083;28;20061;-71
2023/12/12 00:13:38;;;;;;;0.00;0.00;;;4.60;100.00;;;;;;4998518;28;20057;-71
2023/12/12 00:16:09;;;;;;;0.00;0.00;;;4.50;100.00;;;;;;4992893;28;20616;-71
2023/12/12 00:18:36;;;;;;;0.00;0.00;;;4.60;100.00;;;;;;4995018;28;20711;-71
2023/12/12 00:21:04;;;;;;;0.00;0.00;;;4.60;100.00;;;;;;4992066;28;20050;-71
2023/12/12 00:23:31;;;;;;;0.00;0.00;;;4.60;100.00;;;;;;4995223;28;20054;-71
2023/12/12 00:25:58;;;;;;;0.00;0.00;;;4.60;100.00;;;;;;4993626;28;20046;-71
2023/12/12 00:28:28;;;;;;;0.00;0.00;;;4.60;100.00;;;;;;4994974;28;20116;-71
2023/12/12 00:30:55;;;;;;;0.00;0.00;;;4.60;100.00;;;;;;4994489;28;20086;-71
2023/12/12 00:33:22;;;;;;;0.00;0.00;;;4.60;100.00;;;;;;4997600;28;20403;-72
2023/12/12 00:35:49;;;;;;;0.00;0.00;;;4.60;100.00;;;;;;4999709;28;20141;-72
2023/12/12 00:38:16;;;;;;;0.00;0.00;;;4.50;100.00;;;;;;4998336;28;20876;-72
2023/12/12 00:40:53;;;;;;;0.00;0.00;;;4.50;100.00;;;;;;4995842;28;20054;-72
2023/12/12 00:43:21;;;;;;;0.00;0.00;;;4.50;100.00;;;;;;4996149;28;20069;-71
2023/12/12 00:45:48;;;;;;;0.00;0.00;;;4.50;100.00;;;;;;4997445;28;20168;-71
2023/12/12 00:48:17;;;;;;;0.00;0.00;;;4.50;100.00;;;;;;4997654;28;20481;-71
2023/12/12 00:50:44;;;;;;;0.00;0.00;;;4.50;100.00;;;;;;4995122;28;20072;-72
2023/12/12 00:53:12;;;;;;;0.00;0.00;;;4.50;100.00;;;;;;4995189;28;20069;-71
2023/12/12 00:55:38;;;;;;;0.00;0.00;;;4.50;100.00;;;;;;5005284;28;20058;-72
2023/12/12 00:58:05;;;;;;;0.00;0.00;;;4.50;100.00;;;;;;4998958;28;21221;-72
2023/12/12 01:00:32;;;;;;;0.00;0.00;;;4.50;100.00;;;;;;4999135;28;20998;-71
2023/12/12 01:02:59;;;;;;;0.00;0.00;;;4.50;100.00;;;;;;4996791;28;20077;-71
2023/12/12 01:05:26;;;;;;;0.00;0.00;;;4.50;100.00;;;;;;4995502;28;20066;-71
2023/12/12 01:07:53;;;;;;;0.00;0.00;;;4.50;100.00;;;;;;4994141;28;20201;-71
2023/12/12 01:10:20;;;;;;;0.00;0.00;;;4.50;100.00;;;;;;4997886;28;20050;-71
2023/12/12 01:12:47;;;;;;;0.00;0.00;;;4.50;100.00;;;;;;4995138;28;20053;-73
2023/12/12 01:15:15;;;;;;;0.00;0.00;;;4.50;100.00;;;;;;4997195;28;20054;-72
2023/12/12 01:17:42;;;;;;;0.00;0.00;;;4.50;100.00;;;;;;4996479;28;20064;-72
2023/12/12 01:20:10;;;;;;;0.00;0.00;;;4.50;100.00;;;;;;4997269;28;20050;-71
2023/12/12 01:22:37;;;;;;;0.00;0.00;;;4.50;100.00;;;;;;4997827;28;20046;-71
2023/12/12 01:25:07;;;;;;;0.00;0.00;;;4.50;100.00;;;;;;4995858;28;20411;-72
2023/12/12 01:27:34;;;;;;;0.00;0.00;;;4.50;100.00;;;;;;4995015;28;20047;-72
2023/12/12 01:30:01;;;;;;;0.00;0.00;;;4.50;100.00;;;;;;4997487;28;20050;-71
2023/12/12 01:32:28;;;;;;;0.00;0.00;;;4.50;100.00;;;;;;4995533;28;20054;-71
2023/12/12 01:34:55;;;;;;;0.00;0.00;;;4.50;100.00;;;;;;4996482;28;20050;-72
2023/12/12 01:37:22;;;;;;;0.00;0.00;;;4.50;100.00;;;;;;4997016;28;20054;-71
2023/12/12 01:39:49;;;;;;;0.00;0.00;;;4.50;100.00;;;;;;4997638;28;20137;-71
2023/12/12 01:42:16;;;;;;;0.00;0.00;;;4.50;100.00;;;;;;4994897;28;20050;-72
2023/12/12 01:44:43;;;;;;;0.00;0.00;;;4.50;100.00;;;;;;4994056;28;20861;-71
2023/12/12 01:47:10;;;;;;;0.00;0.00;;;4.50;100.00;;;;;;4995286;28;20049;-72
2023/12/12 01:49:38;;;;;;;0.00;0.00;;;4.50;100.00;;;;;;5000053;28;20054;-71
2023/12/12 01:52:06;;;;;;;0.00;0.00;;;4.50;100.00;;;;;;5000211;28;20061;-70
2023/12/12 01:54:39;;;;;;;0.00;0.00;;;4.50;100.00;;;;;;4992589;28;20058;-71
2023/12/12 01:57:08;;;;;;;0.00;0.00;;;4.50;100.00;;;;;;4995570;28;20759;-72
2023/12/12 01:59:36;;;;;;;0.00;0.00;;;4.50;100.00;;;;;;4997054;28;20125;-72
2023/12/12 02:02:04;;;;;;;0.00;0.00;;;4.50;100.00;;;;;;4996101;28;20100;-72
2023/12/12 02:04:32;;;;;;;0.00;0.00;;;4.60;100.00;;;;;;4996449;28;20172;-72
2023/12/12 02:07:01;;;;;;;0.00;0.00;;;4.60;100.00;;;;;;4988332;28;20081;-71
2023/12/12 02:09:28;;;;;;;0.00;0.00;;;4.50;100.00;;;;;;4974430;28;20073;-71
2023/12/12 02:11:55;;;;;;;0.00;0.00;;;4.60;100.00;;;;;;4978587;28;20062;-71
2023/12/12 02:14:23;;;;;;;0.00;0.00;;;4.60;100.00;;;;;;4994898;28;20054;-71
2023/12/12 02:16:49;;;;;;;0.00;0.00;;;4.60;100.00;;;;;;4995611;28;20065;-72
2023/12/12 02:19:17;;;;;;;0.00;0.00;;;4.60;100.00;;;;;;4995409;28;20076;-72
2023/12/12 02:21:44;;;;;;;0.00;0.00;;;4.60;100.00;;;;;;4995330;28;20054;-72
2023/12/12 02:24:11;;;;;;;0.00;0.00;;;4.60;100.00;;;;;;4995793;28;20053;-72
2023/12/12 02:26:38;;;;;;;0.00;0.00;;;4.60;100.00;;;;;;4992553;28;20494;-71
2023/12/12 02:29:05;;;;;;;0.00;0.00;;;4.60;100.00;;;;;;4996500;28;20540;-72
2023/12/12 02:31:32;;;;;;;0.00;0.00;;;4.60;100.00;;;;;;4996115;28;20058;-71
2023/12/12 02:34:00;;;;;;;0.00;0.00;;;4.60;100.00;;;;;;4993542;28;20058;-72
2023/12/12 02:36:27;;;;;;;0.00;0.00;;;4.60;100.00;;;;;;4992826;28;20078;-71
2023/12/12 02:38:54;;;;;;;0.00;0.00;;;4.60;100.00;;;;;;4994645;28;20058;-72
2023/12/12 02:41:21;;;;;;;0.00;0.00;;;4.60;100.00;;;;;;4993177;28;20056;-72
2023/12/12 02:43:48;;;;;;;0.00;0.00;;;4.60;100.00;;;;;;4996553;28;20045;-72
2023/12/12 02:46:15;;;;;;;0.00;0.00;;;4.60;100.00;;;;;;4995753;28;20061;-71
2023/12/12 02:48:45;;;;;;;0.00;0.00;;;4.60;100.00;;;;;;4994135;28;21365;-72
2023/12/12 02:51:12;;;;;;;0.00;0.00;;;4.60;100.00;;;;;;4995326;28;20162;-72
2023/12/12 02:53:38;;;;;;;0.00;0.00;;;4.70;100.00;;;;;;4994002;28;20058;-72
2023/12/12 02:56:06;;;;;;;0.00;0.00;;;4.70;100.00;;;;;;4996746;28;20061;-71
2023/12/12 02:58:32;;;;;;;0.00;0.00;;;4.70;100.00;;;;;;4995018;28;20066;-71
2023/12/12 03:01:00;;;;;;;0.00;0.00;;;4.70;100.00;;;;;;4995446;28;20050;-72
2023/12/12 03:03:27;;;;;;;0.00;0.00;;;4.70;100.00;;;;;;4996792;28;20394;-72
2023/12/12 03:05:53;;;;;;;0.00;0.00;;;4.70;100.00;;;;;;4996167;28;20056;-71
2023/12/12 03:08:20;;;;;;;0.00;0.00;;;4.70;100.00;;;;;;4998209;28;20056;-71
2023/12/12 03:10:47;;;;;;;0.00;0.00;;;4.70;100.00;;;;;;5004023;28;20050;-72
2023/12/12 03:13:14;;;;;;;0.00;0.00;;;4.70;100.00;;;;;;4996268;28;20124;-72
2023/12/12 03:15:41;;;;;;;0.00;0.00;;;4.70;100.00;;;;;;4995561;28;20053;-72
2023/12/12 03:18:08;;;;;;;0.00;0.00;;;4.70;100.00;;;;;;4992175;28;20089;-72
2023/12/12 03:20:35;;;;;;;0.00;0.00;;;4.70;100.00;;;;;;4993233;28;20057;-71
2023/12/12 03:23:02;;;;;;;0.00;0.00;;;4.60;100.00;;;;;;4994970;28;20046;-71
2023/12/12 03:25:29;;;;;;;0.00;0.00;;;4.60;100.00;;;;;;4992985;28;20049;-71
2023/12/12 03:27:56;;;;;;;0.00;0.00;;;4.70;100.00;;;;;;4994200;28;21334;-73
2023/12/12 03:30:22;;;;;;;0.00;0.00;;;4.70;100.00;;;;;;4996339;28;20077;-71
2023/12/12 03:32:49;;;;;;;0.00;0.00;;;4.70;100.00;;;;;;4991407;28;20810;-72
2023/12/12 03:35:16;;;;;;;0.00;0.00;;;4.70;100.00;;;;;;4996039;28;20050;-72
2023/12/12 03:37:43;;;;;;;0.00;0.00;;;4.70;100.00;;;;;;5002851;28;20054;-72
2023/12/12 03:40:11;;;;;;;0.00;0.00;;;4.70;100.00;;;;;;4994377;28;20053;-72
2023/12/12 03:42:38;;;;;;;0.00;0.00;;;4.70;100.00;;;;;;4977802;28;20045;-72
2023/12/12 03:45:06;;;;;;;0.00;0.00;;;4.70;100.00;;;;;;4997003;28;20050;-72
2023/12/12 03:47:33;;;;;;;0.00;0.00;;;4.70;100.00;;;;;;4997698;28;20078;-72
2023/12/12 03:50:00;;;;;;;0.00;0.00;;;4.70;100.00;;;;;;4993697;28;20050;-72
2023/12/12 03:52:27;;;;;;;0.00;0.00;;;4.70;100.00;;;;;;4998958;28;20080;-72
2023/12/12 03:54:54;;;;;;;0.00;0.00;;;4.70;100.00;;;;;;4994441;28;20065;-72
2023/12/12 03:57:21;;;;;;;0.00;0.00;;;4.70;100.00;;;;;;4995692;28;20046;-72
2023/12/12 03:59:48;;;;;;;0.00;0.00;;;4.70;100.00;;;;;;5001197;28;20147;-72
2023/12/12 04:02:15;;;;;;;0.00;0.00;;;4.70;100.00;;;;;;4994785;28;20054;-71
2023/12/12 04:04:43;;;;;;;0.00;0.00;;;4.70;100.00;;;;;;4994137;28;20056;-71
2023/12/12 04:07:10;;;;;;;0.00;0.00;;;4.70;100.00;;;;;;4994441;28;20050;-71
2023/12/12 04:09:37;;;;;;;0.00;0.00;;;4.70;100.00;;;;;;4999269;28;20085;-71
2023/12/12 04:12:04;;;;;;;0.00;0.00;;;4.70;100.00;;;;;;4996418;28;20146;-71
2023/12/12 04:14:31;;;;;;;0.00;0.00;;;4.70;100.00;;;;;;4998847;28;20077;-71
2023/12/12 04:16:58;;;;;;;6.85;0.85;;;4.70;100.00;;;;;;4997848;28;20125;-71
2023/12/12 04:19:24;;;;;;;0.00;0.00;;;4.70;100.00;;;;;;4998158;28;20133;-70
2023/12/12 04:21:52;;;;;;;0.00;0.00;;;4.70;100.00;;;;;;4999675;28;20742;-71
2023/12/12 04:24:19;;;;;;;0.30;0.30;;;4.60;100.00;;;;;;4995799;28;20061;-71
2023/12/12 04:26:45;;;;;;;0.00;0.00;;;4.60;100.00;;;;;;4997904;28;20494;-71
2023/12/12 04:29:12;;;;;;;0.00;0.00;;;4.60;100.00;;;;;;4997340;28;20089;-71
2023/12/12 04:31:39;;;;;;;0.38;0.38;;;4.60;100.00;;;;;;4997562;28;20490;-71
2023/12/12 04:34:06;;;;;;;0.00;0.00;;;4.60;100.00;;;;;;4997243;28;20175;-71
2023/12/12 04:36:33;;;;;;;0.00;0.00;;;4.60;100.00;;;;;;4997883;28;20396;-71
2023/12/12 04:39:00;;;;;;;0.00;0.00;;;4.60;100.00;;;;;;4996544;28;20058;-70
2023/12/12 04:41:27;;;;;;;0.00;0.00;;;4.60;100.00;;;;;;4997786;28;20437;-70
2023/12/12 04:43:54;;;;;;;0.00;0.00;;;4.70;100.00;;;;;;4998417;28;20152;-70
2023/12/12 04:46:24;;;;;;;0.00;0.00;;;4.60;100.00;;;;;;4999135;28;20054;-71
2023/12/12 04:48:51;;;;;;;0.00;0.00;;;4.60;100.00;;;;;;4998303;28;20053;-71
2023/12/12 04:51:18;;;;;;;0.00;0.00;;;4.60;100.00;;;;;;4998752;28;20046;-71
2023/12/12 04:53:45;;;;;;;0.00;0.00;;;4.60;100.00;;;;;;4996827;28;20986;-71
2023/12/12 04:56:12;;;;;;;0.00;0.00;;;4.60;100.00;;;;;;4996629;28;20666;-70
2023/12/12 04:58:38;;;;;;;0.00;0.00;;;4.60;100.00;;;;;;4998247;28;20086;-71
2023/12/12 05:01:06;;;;;;;0.00;0.00;;;4.60;100.00;;;;;;4997602;28;20131;-71
2023/12/12 05:03:33;;;;;;;0.00;0.00;;;4.60;100.00;;;;;;4998972;28;20049;-71
2023/12/12 05:06:00;;;;;;;0.00;0.00;;;4.60;100.00;;;;;;5005244;28;20060;-71
2023/12/12 05:08:28;;;;;;;0.00;0.00;;;4.60;100.00;;;;;;4995246;28;20096;-71
2023/12/12 05:10:55;;;;;;;0.00;0.00;;;4.60;100.00;;;;;;4993675;28;20077;-71
2023/12/12 05:13:22;;;;;;;0.00;0.00;;;4.60;100.00;;;;;;4998576;28;20136;-71
2023/12/12 05:15:49;;;;;;;0.10;0.10;;;4.60;100.00;;;;;;4995397;28;20601;-71
2023/12/12 05:18:16;;;;;;;0.00;0.00;;;4.60;100.00;;;;;;4996874;28;20073;-71
2023/12/12 05:20:43;;;;;;;0.00;0.00;;;4.60;100.00;;;;;;4996806;28;20435;-71
2023/12/12 05:23:11;;;;;;;0.00;0.00;;;4.60;100.00;;;;;;4992180;28;20056;-71
2023/12/12 05:25:39;;;;;;;0.00;0.00;;;4.60;100.00;;;;;;4998581;28;20101;-71
2023/12/12 05:28:07;;;;;;;0.00;0.00;;;4.60;100.00;;;;;;4996230;28;20090;-71
2023/12/12 05:30:34;;;;;;;0.00;0.00;;;4.60;100.00;;;;;;4997179;28;20117;-71
2023/12/12 05:33:03;;;;;;;0.00;0.00;;;4.60;100.00;;;;;;4996307;28;20061;-72
2023/12/12 05:35:30;;;;;;;0.00;0.00;;;4.70;100.00;;;;;;4998576;28;20054;-72
2023/12/12 05:37:56;;;;;;;0.00;0.00;;;4.60;100.00;;;;;;4995688;28;20077;-74
2023/12/12 05:40:23;;;;;;;0.00;0.00;;;4.70;100.00;;;;;;4997046;28;20054;-70
2023/12/12 05:42:50;;;;;;;0.00;0.00;;;4.70;100.00;;;;;;4994625;28;20485;-71
2023/12/12 05:45:17;;;;;;;0.00;0.00;;;4.70;100.00;;;;;;4990601;28;20052;-74
2023/12/12 05:47:44;;;;;;;0.00;0.00;;;4.70;100.00;;;;;;4997622;28;20136;-73
2023/12/12 05:50:11;;;;;;;0.00;0.00;;;4.70;100.00;;;;;;4992579;28;20050;-73
2023/12/12 05:52:39;;;;;;;0.00;0.00;;;4.70;100.00;;;;;;4996363;28;20161;-73
2023/12/12 05:55:06;;;;;;;0.00;0.00;;;4.70;100.00;;;;;;4996541;28;20165;-71
2023/12/12 05:57:33;;;;;;;0.00;0.00;;;4.70;100.00;;;;;;4997220;28;20042;-71
2023/12/12 06:00:00;;;;;;;0.00;0.00;;;4.70;100.00;;;;;;4997809;28;20057;-70
2023/12/12 06:02:28;;;;;;;0.00;0.00;;;4.70;100.00;;;;;;4995175;28;20065;-71
2023/12/12 06:04:55;;;;;;;0.00;0.00;;;4.60;100.00;;;;;;4995625;28;20099;-72
2023/12/12 06:07:22;;;;;;;0.00;0.00;;;4.60;100.00;;;;;;4998213;28;20045;-72
2023/12/12 06:09:49;;;;;;;0.00;0.00;;;4.60;100.00;;;;;;4995475;28;20058;-72
2023/12/12 06:12:17;;;;;;;0.00;0.00;;;4.60;100.00;;;;;;4996638;28;20050;-73
2023/12/12 06:14:46;;;;;;;0.00;0.00;;;4.60;100.00;;;;;;4995607;28;20058;-72
2023/12/12 06:17:13;;;;;;;0.00;0.00;;;4.50;100.00;;;;;;4993161;28;20444;-71
2023/12/12 06:19:40;;;;;;;0.00;0.00;;;4.50;100.00;;;;;;4995015;28;20698;-72
2023/12/12 06:22:08;;;;;;;0.00;0.00;;;4.50;100.00;;;;;;4993904;28;20132;-72
2023/12/12 06:24:35;;;;;;;0.00;0.00;;;4.50;100.00;;;;;;4997087;28;20057;-70
2023/12/12 06:27:02;;;;;;;0.00;0.00;;;4.40;100.00;;;;;;4996895;28;20060;-69
2023/12/12 06:29:28;;;;;;;0.00;0.00;;;4.40;100.00;;;;;;4994132;28;20562;-70
2023/12/12 06:31:55;;;;;;;0.00;0.00;;;4.40;100.00;;;;;;4995245;28;20949;-71
2023/12/12 06:34:23;;;;;;;0.00;0.00;;;4.40;100.00;;;;;;4994438;28;20668;-72
2023/12/12 06:36:51;;;;;;;0.00;0.00;;;4.40;100.00;;;;;;4995992;28;20633;-73
2023/12/12 06:39:18;;;;;;;0.00;0.00;;;4.40;100.00;;;;;;4993921;28;21446;-72
2023/12/12 06:41:44;;;;;;;0.00;0.00;;;4.40;100.00;;;;;;4993563;28;20049;-72
2023/12/12 06:44:11;;;;;;;0.00;0.00;;;4.40;100.00;;;;;;4993889;28;20041;-72
2023/12/12 06:46:40;;;;;;;0.00;0.00;;;4.40;100.00;;;;;;4994441;28;20054;-72
2023/12/12 06:49:07;;;;;;;0.00;0.00;;;4.30;100.00;;;;;;4987258;28;20046;-73
2023/12/12 06:51:35;;;;;;;0.00;0.00;;;4.40;100.00;;;;;;4995760;28;20046;-73
2023/12/12 06:54:03;;;;;;;0.00;0.00;;;4.30;100.00;;;;;;4995813;28;20135;-74
2023/12/12 06:56:31;;;;;;;0.00;0.00;;;4.30;100.00;;;;;;4993198;28;21324;-73
2023/12/12 06:58:58;;;;;;;0.00;0.00;;;4.30;100.00;;;;;;4987351;28;20053;-73
2023/12/12 07:01:25;;;;;;;0.00;0.00;;;4.30;100.00;;;;;;4994777;28;20104;-73
2023/12/12 07:03:51;;;;;;;0.00;0.00;;;4.30;100.00;;;;;;4993931;28;20053;-73
2023/12/12 07:06:18;;;;;;;0.00;0.00;;;4.30;100.00;;;;;;4996814;28;20647;-73
2023/12/12 07:08:46;;;;;;;0.00;0.00;;;4.30;100.00;;;;;;4993661;28;20053;-73
2023/12/12 07:11:16;;;;;;;0.00;0.00;;;4.30;100.00;;;;;;4995643;28;20049;-73
2023/12/12 07:13:44;;;;;;;0.00;0.00;;;4.30;100.00;;;;;;4996408;28;20116;-73
2023/12/12 07:16:11;;;;;;;0.00;0.00;;;4.30;100.00;;;;;;4993413;28;20054;-73
2023/12/12 07:18:39;;;;;;;0.00;0.00;;;4.30;100.00;;;;;;4997402;28;20454;-73
2023/12/12 07:21:06;;;;;;;0.00;0.00;;;4.30;100.00;;;;;;4996228;28;20042;-73
2023/12/12 07:23:34;;;;;;;0.00;0.00;;;4.20;100.00;;;;;;4995224;28;20054;-73
2023/12/12 07:26:01;;;;;;;0.00;0.00;;;4.30;100.00;;;;;;4997913;28;20425;-72
2023/12/12 07:28:28;;;;;;;0.00;0.00;;;4.30;100.00;;;;;;4993322;28;20045;-72
2023/12/12 07:30:55;;;;;;;0.00;0.00;;;4.30;100.00;;;;;;4993060;28;20124;-72
2023/12/12 07:33:22;;;;;;;0.00;0.00;;;4.30;100.00;;;;;;4995170;28;20490;-72
2023/12/12 07:35:49;;;;;;;0.00;0.00;;;4.20;100.00;;;;;;4991514;28;20533;-73
2023/12/12 07:38:16;;;;;;;0.00;0.00;;;4.20;100.00;;;;;;4995155;28;20064;-73
2023/12/12 07:40:43;;;;;;;0.00;0.00;;;4.20;100.00;;;;;;4992820;28;20401;-73
2023/12/12 07:43:11;;;;;;;0.00;0.00;;;4.10;100.00;;;;;;4992894;28;20053;-73
2023/12/12 07:45:38;;;;;;;0.00;0.00;;;4.10;100.00;;;;;;4994070;28;20145;-73
2023/12/12 07:48:05;;;;;;;0.00;0.00;;;4.10;100.00;;;;;;4993366;28;20061;-73
2023/12/12 07:50:32;;;;;;;0.00;0.00;;;4.10;100.00;;;;;;4992839;28;20112;-72
2023/12/12 07:52:59;;;;;;;0.00;0.00;;;4.10;100.00;;;;;;4996024;28;20050;-73
2023/12/12 07:55:26;;;;;;;0.00;0.00;;;4.10;100.00;;;;;;4993860;28;20085;-72
2023/12/12 07:57:53;;;;;;;0.00;0.00;;;4.00;100.00;;;;;;4996655;28;20499;-73
2023/12/12 08:00:21;;;;;;;0.00;0.00;;;4.00;100.00;;;;;;4993131;28;20055;-73
2023/12/12 08:02:47;;;;;;;0.00;0.00;;;4.00;100.00;;;;;;4993788;28;21313;-72
2023/12/12 08:05:14;;;;;;;0.00;0.00;;;4.00;100.00;;;;;;4992394;28;20085;-72
2023/12/12 08:07:41;;;;;;;0.00;0.00;;;4.00;100.00;;;;;;4992442;28;20053;-72
2023/12/12 08:10:08;;;;;;;0.00;0.00;;;4.10;100.00;;;;;;4995988;28;20050;-73
2023/12/12 08:12:36;;;;;;;0.00;0.00;;;4.10;100.00;;;;;;4995626;28;20046;-73
2023/12/12 08:15:04;;;;;;;0.00;0.00;;;4.10;100.00;;;;;;4994784;28;20065;-73
2023/12/12 08:17:31;;;;;;;0.00;0.00;;;4.10;100.00;;;;;;4994234;28;20145;-73
2023/12/12 08:19:58;;;;;;;0.00;0.00;;;4.00;100.00;;;;;;4994150;28;20050;-73
2023/12/12 08:22:26;;;;;;;0.00;0.00;;;4.00;100.00;;;;;;4993053;28;20128;-72
2023/12/12 08:24:54;;;;;;;0.00;0.00;;;4.00;100.00;;;;;;4993771;28;20052;-73
2023/12/12 08:27:21;;;;;;;0.00;0.00;;;4.00;100.00;;;;;;4993941;28;20595;-73
2023/12/12 08:29:49;;;;;;;0.00;0.00;;;4.00;100.00;;;;;;4994844;28;20050;-73
2023/12/12 08:32:16;;;;;;;0.00;0.00;;;3.90;100.00;;;;;;4997392;28;20054;-73
2023/12/12 08:34:43;;;;;;;0.00;0.00;;;4.00;100.00;;;;;;4994229;28;20112;-73
2023/12/12 08:37:10;;;;;;;0.00;0.00;;;3.90;100.00;;;;;;4997947;28;20120;-73
2023/12/12 08:39:38;;;;;;;0.00;0.00;;;3.90;100.00;;;;;;4994767;28;20055;-72
2023/12/12 08:42:05;;;;;;;0.00;0.00;;;3.90;100.00;;;;;;4995238;28;21335;-73
2023/12/12 08:44:32;;;;;;;0.00;0.00;;;3.90;100.00;;;;;;4993319;28;20233;-72
2023/12/12 08:46:59;;;;;;;0.00;0.00;;;3.80;100.00;;;;;;4996951;28;20053;-72
2023/12/12 08:49:26;;;;;;;0.00;0.00;;;3.80;100.00;;;;;;4994997;28;20115;-72
2023/12/12 08:51:53;;;;;;;0.00;0.00;;;3.80;100.00;;;;;;4997114;28;20054;-72
2023/12/12 08:54:21;;;;;;;0.00;0.00;;;3.80;100.00;;;;;;4996405;28;20046;-72
2023/12/12 08:56:54;;;;;;;0.00;0.00;;;3.80;100.00;;;;;;4997067;28;20050;-72
2023/12/12 08:59:21;;;;;;;0.00;0.00;;;3.80;100.00;;;;;;4996836;28;20077;-72
2023/12/12 09:01:48;;;;;;;0.00;0.00;;;3.70;100.00;;;;;;4996269;28;20181;-73
2023/12/12 09:04:16;;;;;;;0.00;0.00;;;3.80;100.00;;;;;;4998561;28;20084;-73
2023/12/12 09:06:44;;;;;;;0.00;0.00;;;3.70;100.00;;;;;;4997487;28;20042;-72
2023/12/12 09:09:12;;;;;;;0.00;0.00;;;3.70;100.00;;;;;;4997220;28;21216;-72
2023/12/12 09:11:39;;;;;;;0.00;0.00;;;3.70;100.00;;;;;;4997539;28;20088;-72
2023/12/12 09:14:07;;;;;;;0.00;0.00;;;3.80;100.00;;;;;;4996815;28;20805;-73
2023/12/12 09:16:34;;;;;;;0.00;0.00;;;3.80;100.00;;;;;;4996949;28;20953;-73
2023/12/12 09:19:01;;;;;;;0.00;0.00;;;3.80;100.00;;;;;;4995020;28;20815;-73
2023/12/12 09:21:29;;;;;;;0.00;0.00;;;3.80;100.00;;;;;;4998239;28;20188;-73
2023/12/12 09:23:56;;;;;;;0.00;0.00;;;3.80;100.00;;;;;;4997473;28;20521;-72
2023/12/12 09:26:23;;;;;;;0.00;0.00;;;3.70;100.00;;;;;;4996053;28;20054;-73
2023/12/12 09:28:50;;;;;;;0.00;0.00;;;3.70;100.00;;;;;;5000008;28;20092;-74
2023/12/12 09:31:29;;;;;;;0.00;0.00;;;3.80;100.00;;;;;;4997101;28;20052;-73
2023/12/12 09:33:56;;;;;;;0.00;0.00;;;3.80;100.00;;;;;;4998918;28;20050;-73
2023/12/12 09:36:23;;;;;;;0.00;0.00;;;3.80;100.00;;;;;;5002161;28;20143;-73
2023/12/12 09:38:50;;;;;;;0.00;0.00;;;3.80;100.00;;;;;;5003784;28;20548;-74
2023/12/12 09:41:22;;;;;;;0.00;0.00;;;3.80;100.00;;;;;;5007732;28;20060;-73
2023/12/12 09:43:50;;;;;;;0.00;0.00;;;3.80;100.00;;;;;;5022232;28;20061;-74
2023/12/12 09:46:19;;;;;;;0.00;0.00;;;3.80;100.00;;;;;;5005787;28;20073;-73
2023/12/12 09:48:50;;;;;;;0.00;0.00;;;3.80;100.00;;;;;;5003767;28;20080;-73
2023/12/12 09:51:17;;;;;;;0.00;0.00;;;3.80;100.00;;;;;;5021288;28;20081;-73
2023/12/12 09:53:48;;;;;;;0.00;0.00;;;3.90;100.00;;;;;;5011807;28;20057;-72
2023/12/12 09:56:18;;;;;;;0.00;0.00;;;3.80;100.00;;;;;;5004296;28;20046;-73
2023/12/12 09:58:49;;;;;;;0.00;0.00;;;3.90;100.00;;;;;;4996960;28;20081;-73
2023/12/12 10:01:17;;;;;;;0.00;0.00;;;3.90;100.00;;;;;;5002207;28;20271;-72
2023/12/12 10:03:44;;;;;;;0.00;0.00;;;3.80;100.00;;;;;;5006019;28;20057;-73
2023/12/12 10:06:13;;;;;;;0.00;0.00;;;3.80;100.00;;;;;;4999219;28;20058;-72
2023/12/12 10:08:40;;;;;;;0.00;0.00;;;3.80;100.00;;;;;;5001210;28;20541;-73
2023/12/12 10:11:09;;;;;;;0.00;0.00;;;3.80;100.00;;;;;;5006181;28;20046;-72
2023/12/12 10:13:50;;;;;;;0.00;0.00;;;3.80;100.00;;;;;;5007148;28;20156;-73
2023/12/12 10:16:18;;;;;;;0.00;0.00;;;3.80;100.00;;;;;;5006647;28;20050;-73
2023/12/12 10:18:46;;;;;;;0.00;0.00;;;3.80;100.00;;;;;;5006665;28;20637;-73
2023/12/12 10:21:19;;;;;;;0.00;0.00;;;3.80;100.00;;;;;;4996682;28;20054;-73
2023/12/12 10:23:50;;;;;;;0.00;0.00;;;3.80;100.00;;;;;;5005604;28;20494;-73
2023/12/12 10:26:31;;;;;;;0.00;0.00;;;3.80;100.00;;;;;;5002471;28;20045;-74
2023/12/12 10:29:02;;;;;;;0.00;0.00;;;3.80;100.00;;;;;;5003849;28;20050;-73
2023/12/12 10:31:29;;;;;;;0.00;0.00;;;3.80;100.00;;;;;;5005164;28;20050;-73
2023/12/12 10:33:57;;;;;;;0.00;0.00;;;3.80;100.00;;;;;;5004693;28;20770;-73
2023/12/12 10:36:24;;;;;;;0.00;0.00;;;3.80;100.00;;;;;;5001187;28;20050;-72
2023/12/12 10:38:52;;;;;;;0.00;0.00;;;3.80;100.00;;;;;;5001159;28;20135;-72
2023/12/12 10:41:20;;;;;;;0.00;0.00;;;3.70;100.00;;;;;;5005803;28;20050;-73
2023/12/12 10:43:52;;;;;;;0.00;0.00;;;3.80;100.00;;;;;;5003352;28;20057;-73
2023/12/12 10:46:20;;;;;;;0.00;0.00;;;3.80;100.00;;;;;;5004062;28;20486;-73
2023/12/12 10:48:48;;;;;;;1.05;1.02;;;3.80;100.00;;;;;;5005913;28;20501;-73
2023/12/12 10:51:19;;;;;;;0.00;0.00;;;3.80;100.00;;;;;;5004590;28;20052;-74
2023/12/12 10:53:48;;;;;;;0.00;0.00;;;3.70;100.00;;;;;;5004484;28;20061;-73
2023/12/12 10:56:17;;;;;;;0.00;0.00;;;3.80;100.00;;;;;;5002600;28;20080;-72
2023/12/12 10:58:44;;;;;;;0.00;0.00;;;3.80;100.00;;;;;;4993162;28;20061;-72
2023/12/12 11:01:13;;;;;;;0.00;0.00;;;3.70;100.00;;;;;;4997355;28;20051;-73
2023/12/12 11:03:41;;;;;;;0.00;0.00;;;3.70;100.00;;;;;;5005531;28;20430;-73
2023/12/12 11:06:09;;;;;;;0.00;0.00;;;3.70;100.00;;;;;;5001841;28;20046;-73
2023/12/12 11:08:37;;;;;;;0.00;0.00;;;3.80;100.00;;;;;;5002029;28;20698;-73
2023/12/12 11:11:10;;;;;;;0.00;0.00;;;3.80;100.00;;;;;;5005173;28;20094;-72
2023/12/12 11:13:39;;;;;;;0.00;0.00;;;3.80;100.00;;;;;;5001959;28;20058;-73
2023/12/12 11:16:08;;;;;;;0.00;0.00;;;3.80;100.00;;;;;;5003070;28;20124;-73
2023/12/12 11:18:37;;;;;;;0.00;0.00;;;3.80;100.00;;;;;;5004234;28;20056;-73
2023/12/12 11:21:05;;;;;;;0.00;0.00;;;3.80;100.00;;;;;;5004339;28;20164;-72
2023/12/12 11:23:53;;;;;;;0.00;0.00;;;3.80;100.00;;;;;;4999618;28;20065;-72
2023/12/12 11:26:25;;;;;;;0.00;0.00;;;3.80;100.00;;;;;;5000446;28;20124;-73
2023/12/12 11:28:54;;;;;;;0.00;0.00;;;3.80;100.00;;;;;;5004617;28;20419;-73
2023/12/12 11:31:25;;;;;;;0.00;0.00;;;3.80;100.00;;;;;;5004002;28;20561;-72
2023/12/12 11:34:05;;;;;;;0.00;0.00;;;3.80;100.00;;;;;;5010395;28;20096;-73
2023/12/12 11:36:51;;;;;;;0.00;0.00;;;3.90;100.00;;;;;;5001824;28;20111;-73
2023/12/12 11:39:37;;;;;;;0.00;0.00;;;3.90;100.00;;;;;;4997693;28;20112;-73
2023/12/12 11:42:15;;;;;;;0.00;0.00;;;3.90;100.00;;;;;;4996994;28;20843;-73
2023/12/12 11:44:45;;;;;;;0.00;0.00;;;3.90;100.00;;;;;;5000634;28;20111;-72
2023/12/12 11:47:17;;;;;;;0.00;0.00;;;3.90;100.00;;;;;;4995371;28;20050;-73
2023/12/12 11:49:44;;;;;;;0.00;0.00;;;4.00;100.00;;;;;;4998214;28;20056;-73
2023/12/12 11:52:31;;;;;;;0.00;0.00;;;4.00;100.00;;;;;;4999780;28;20088;-72
2023/12/12 11:54:58;;;;;;;0.00;0.00;;;4.00;100.00;;;;;;5018705;28;20068;-72
2023/12/12 11:57:25;;;;;;;0.00;0.00;;;4.00;100.00;;;;;;5003688;28;20054;-72
2023/12/12 11:59:52;;;;;;;0.08;0.08;;;4.00;100.00;;;;;;5001052;28;20559;-72
2023/12/12 12:02:19;;;;;;;0.00;0.00;;;4.00;100.00;;;;;;4999033;28;20081;-72
2023/12/12 12:04:46;;;;;;;0.00;0.00;;;4.00;100.00;;;;;;5003695;28;20050;-72
2023/12/12 12:07:13;;;;;;;0.00;0.00;;;4.00;100.00;;;;;;5001683;28;20408;-72
2023/12/12 12:09:41;;;;;;;0.00;0.00;;;4.00;100.00;;;;;;5004456;28;20045;-73
2023/12/12 12:12:12;;;;;;;0.00;0.00;;;4.00;100.00;;;;;;5003488;28;20057;-72
2023/12/12 12:14:39;;;;;;;0.00;0.00;;;4.00;100.00;;;;;;5004909;28;20045;-72
2023/12/12 12:17:05;;;;;;;0.00;0.00;;;4.00;100.00;;;;;;5003540;28;20054;-73
2023/12/12 12:19:34;;;;;;;0.00;0.00;;;4.00;100.00;;;;;;5004812;28;20050;-73
2023/12/12 12:22:11;;;;;;;0.00;0.00;;;4.00;100.00;;;;;;5000430;28;20054;-72
2023/12/12 12:24:42;;;;;;;0.00;0.00;;;3.90;100.00;;;;;;5000651;28;20952;-74
2023/12/12 12:27:09;;;;;;;0.00;0.00;;;3.90;100.00;;;;;;5003810;28;20049;-73
2023/12/12 12:29:36;;;;;;;0.00;0.00;;;3.90;100.00;;;;;;5001340;28;20057;-73
2023/12/12 12:32:13;;;;;;;0.00;0.00;;;3.90;100.00;;;;;;5006733;28;20104;-73
2023/12/12 12:34:41;;;;;;;0.00;0.00;;;3.90;100.00;;;;;;5007916;28;20746;-73
2023/12/12 12:37:31;;;;;;;0.00;0.00;;;3.90;100.00;;;;;;5006998;28;20053;-72
2023/12/12 12:39:58;;;;;;;0.00;0.00;;;3.80;100.00;;;;;;5004762;28;20052;-72
2023/12/12 12:42:36;;;;;;;0.00;0.00;;;3.80;100.00;;;;;;5008286;28;20054;-73
2023/12/12 12:45:07;;;;;;;0.00;0.00;;;3.80;100.00;;;;;;5002500;28;20060;-73
2023/12/12 12:47:34;;;;;;;0.00;0.00;;;3.80;100.00;;;;;;5004308;28;20117;-73
2023/12/12 12:50:02;;;;;;;0.00;0.00;;;3.80;100.00;;;;;;5006367;28;20124;-72
2023/12/12 12:52:29;;;;;;;0.00;0.00;;;3.90;100.00;;;;;;5004293;28;20050;-73